Time;durP1;ratioP1;P1;durP2;ratioP2;P2;SDS_P1;SDS_P2;PMS_P1;PMS_P2;Temp;Humidity;BMP_temperature;BMP_pressure;BME280_temperature;BME280_humidity;BME280_pressure;Samples;Min_cycle;Max_cycle;Signal;HPM_P1;HPM_P2
2022/10/03 00:00:30;;;;;;;;;;;;;;;14.94;86.62;102122.06;6251578;22;20018;-61
2022/10/03 00:03:28;;;;;;;13.68;8.27;;;;;;;15.04;87.07;102132.97;6250516;22;19921;-61
2022/10/03 00:06:00;;;;;;;13.35;6.63;;;;;;;14.90;87.58;102137.72;6224676;22;20015;-61
2022/10/03 00:08:45;;;;;;;13.00;7.75;;;;;;;15.02;88.83;102137.19;6253091;22;20023;-61
2022/10/03 00:11:25;;;;;;;13.80;8.45;;;;;;;15.26;90.00;102144.16;6279666;22;20332;-62
2022/10/03 00:14:03;;;;;;;12.32;7.57;;;;;;;15.30;89.15;102138.81;6279756;22;20015;-61
2022/10/03 00:17:00;;;;;;;12.90;7.65;;;;;;;15.45;89.30;102142.09;6252567;22;20367;-61
2022/10/03 00:20:06;;;;;;;14.55;7.65;;;;;;;15.39;87.56;102135.00;6224861;22;20016;-61
2022/10/03 00:22:46;;;;;;;12.27;8.20;;;;;;;15.11;86.43;102138.13;6233040;22;20016;-62
2022/10/03 00:25:33;;;;;;;;;;;;;;;15.03;86.29;102136.88;6253152;22;20019;-62
2022/10/03 00:28:25;;;;;;;14.23;7.85;;;;;;;15.02;86.14;102135.25;6252844;22;20238;-62
2022/10/03 00:31:13;;;;;;;15.35;7.97;;;;;;;15.03;85.94;102139.66;6249062;22;20016;-62
2022/10/03 00:34:19;;;;;;;15.10;8.25;;;;;;;15.11;86.39;102141.72;6252293;22;20012;-62
2022/10/03 00:36:55;;;;;;;13.45;8.38;;;;;;;14.98;87.63;102141.69;6215866;22;20020;-61
2022/10/03 00:39:37;;;;;;;12.90;8.13;;;;;;;15.27;89.71;102145.78;6279872;22;20023;-61
2022/10/03 00:42:25;;;;;;;14.48;7.68;;;;;;;15.26;88.91;102141.38;6279628;22;20020;-62
2022/10/03 00:45:30;;;;;;;14.43;7.95;;;;;;;15.41;89.65;102149.41;6264151;22;20023;-63
2022/10/03 00:48:35;;;;;;;17.67;8.18;;;;;;;15.36;89.67;102146.72;6279961;22;20107;-62
2022/10/03 00:51:18;;;;;;;14.85;8.45;;;;;;;15.29;90.11;102151.06;6209323;22;20304;-62
2022/10/03 00:53:57;;;;;;;15.38;8.38;;;;;;;15.30;90.48;102147.97;6279453;22;20020;-61
2022/10/03 00:56:39;;;;;;;13.73;7.72;;;;;;;15.35;89.71;102141.47;6278932;22;20016;-62
2022/10/03 00:59:25;;;;;;;12.98;8.27;;;;;;;15.21;90.18;102138.72;6279920;22;20019;-61
2022/10/03 01:01:53;;;;;;;15.43;8.85;;;;;;;15.03;90.08;102147.19;6250559;22;20019;-62
2022/10/03 01:04:26;;;;;;;14.10;8.05;;;;;;;15.17;91.28;102143.25;6262800;22;20015;-61
2022/10/03 01:07:09;;;;;;;13.45;8.20;;;;;;;15.14;90.11;102140.25;6279026;22;20030;-62
2022/10/03 01:09:39;;;;;;;14.50;8.85;;;;;;;15.03;89.68;102144.41;6279506;22;20012;-61
2022/10/03 01:12:27;;;;;;;15.77;8.70;;;;;;;14.87;88.06;102143.84;6279386;22;20031;-61
2022/10/03 01:15:05;;;;;;;13.20;8.80;;;;;;;14.65;88.47;102138.19;6261996;22;20019;-61
2022/10/03 01:17:52;;;;;;;15.27;9.40;;;;;;;14.75;90.08;102138.00;6225512;22;20015;-61
2022/10/03 01:20:25;;;;;;;14.27;9.20;;;;;;;14.65;90.89;102143.75;6250307;22;20347;-62
2022/10/03 01:23:01;;;;;;;15.95;8.30;;;;;;;14.83;90.98;102142.00;6279657;22;20012;-61
2022/10/03 01:25:38;;;;;;;14.93;9.20;;;;;;;15.04;91.31;102148.81;6261478;22;20027;-61
2022/10/03 01:31:10;;;;;;;17.17;8.90;;;;;;;15.22;90.77;102145.09;6277919;22;20015;-62
2022/10/03 01:33:52;;;;;;;14.55;8.95;;;;;;;14.90;91.64;102142.44;6226512;22;20012;-62
2022/10/03 01:36:51;;;;;;;14.18;8.45;;;;;;;14.93;91.67;102136.25;6251075;22;20027;-62
2022/10/03 01:39:36;;;;;;;15.52;8.55;;;;;;;14.68;89.74;102145.09;6252534;22;20071;-61
2022/10/03 01:42:17;;;;;;;15.00;8.32;;;;;;;14.58;88.78;102143.31;6252050;22;20020;-61
2022/10/03 01:45:24;;;;;;;15.82;9.32;;;;;;;14.83;90.88;102142.84;6202089;22;20019;-61
2022/10/03 01:47:59;;;;;;;13.75;8.20;;;;;;;15.00;91.57;102128.34;6192724;22;20026;-61
2022/10/03 01:50:51;;;;;;;15.30;9.02;;;;;;;14.70;89.63;102131.75;6250369;22;20026;-62
2022/10/03 01:53:40;;;;;;;17.17;8.70;;;;;;;14.74;91.07;102129.97;6279279;22;20016;-62
2022/10/03 01:56:18;;;;;;;15.98;8.77;;;;;;;14.64;91.30;102133.78;6226010;22;20023;-61
2022/10/03 01:58:56;;;;;;;16.35;9.63;;;;;;;14.62;92.59;102131.31;6252498;22;20015;-61
2022/10/03 02:01:47;;;;;;;15.13;8.55;;;;;;;14.70;93.21;102131.75;6251826;22;20026;-61
2022/10/03 02:04:14;;;;;;;;;;;;;;;14.40;90.83;102128.38;6279954;22;20027;-61
2022/10/03 02:06:44;;;;;;;17.23;8.82;;;;;;;14.67;93.20;102130.38;6278169;22;19919;-62
2022/10/03 02:09:33;;;;;;;15.10;8.95;;;;;;;14.83;93.72;102134.53;6279083;22;20019;-62
2022/10/03 02:12:03;;;;;;;12.05;7.78;;;;;;;14.78;92.85;102129.06;6250807;22;20023;-62
2022/10/03 02:14:30;;;;;;;17.55;9.20;;;;;;;14.68;93.32;102129.25;6250894;22;20026;-61
2022/10/03 02:17:02;;;;;;;16.30;9.30;;;;;;;14.61;93.09;102126.88;6277656;22;20016;-62
2022/10/03 02:19:36;;;;;;;18.08;8.73;;;;;;;14.86;93.88;102133.06;6225222;22;20451;-62
2022/10/03 02:22:33;;;;;;;16.52;8.60;;;;;;;14.91;93.50;102128.25;6277341;22;20028;-62
2022/10/03 02:25:18;;;;;;;13.82;8.23;;;;;;;15.02;92.68;102126.09;6250043;22;20107;-61
2022/10/03 02:28:07;;;;;;;18.75;8.68;;;;;;;14.99;91.91;102133.09;6226761;22;20521;-62
2022/10/03 02:30:53;;;;;;;12.63;7.70;;;;;;;15.00;92.35;102136.66;6278437;22;20020;-62
2022/10/03 02:33:43;;;;;;;16.45;8.35;;;;;;;14.90;92.07;102123.00;6251135;22;20020;-62
2022/10/03 02:36:26;;;;;;;12.63;7.93;;;;;;;14.99;92.08;102130.31;6225672;22;20684;-62
2022/10/03 02:39:38;;;;;;;12.68;7.60;;;;;;;14.96;91.81;102128.13;6250007;22;20019;-62
2022/10/03 02:42:41;;;;;;;16.63;7.90;;;;;;;14.98;91.90;102125.06;6153303;23;20017;-62
2022/10/03 02:45:37;;;;;;;13.88;7.90;;;;;;;14.95;90.59;102128.44;6220197;22;20452;-62
2022/10/03 02:48:37;;;;;;;13.07;8.02;;;;;;;14.96;90.57;102132.88;6252311;22;20019;-63
2022/10/03 02:51:33;;;;;;;15.05;8.82;;;;;;;14.95;91.64;102137.59;6210622;22;20019;-62
2022/10/03 02:54:37;;;;;;;13.30;7.95;;;;;;;14.95;91.09;102134.81;6278049;22;20021;-61
2022/10/03 02:57:29;;;;;;;15.25;8.15;;;;;;;15.00;91.83;102126.41;6278319;22;20308;-61
2022/10/03 03:00:09;;;;;;;14.43;8.20;;;;;;;14.98;90.88;102131.44;6262184;22;20019;-61
2022/10/03 03:03:05;;;;;;;16.77;8.25;;;;;;;14.91;89.76;102119.09;6226303;22;20333;-61
2022/10/03 03:05:41;;;;;;;14.70;8.27;;;;;;;14.71;90.55;102123.13;6251842;22;20466;-62
2022/10/03 03:08:21;;;;;;;12.25;7.82;;;;;;;14.86;91.32;102125.56;6247492;22;20030;-61
2022/10/03 03:11:01;;;;;;;14.48;8.35;;;;;;;14.84;91.06;102127.00;6250951;22;20049;-61
2022/10/03 03:13:47;;;;;;;13.80;7.88;;;;;;;14.87;91.98;102132.75;6278998;22;20328;-61
2022/10/03 03:16:47;;;;;;;15.70;8.68;;;;;;;14.70;91.13;102128.97;6278240;22;20031;-62
2022/10/03 03:19:33;;;;;;;14.48;8.85;;;;;;;14.63;91.58;102129.34;6251988;22;20015;-62
2022/10/03 03:22:11;;;;;;;15.38;8.95;;;;;;;14.65;92.45;102124.31;6251605;22;20035;-60
2022/10/03 03:25:15;;;;;;;16.75;10.30;;;;;;;14.38;89.98;102129.84;6251389;22;20022;-62
2022/10/03 03:28:07;;;;;;;17.52;10.02;;;;;;;14.63;92.27;102130.19;6278559;22;20439;-61
2022/10/03 03:30:40;;;;;;;16.52;9.32;;;;;;;14.74;93.22;102121.66;6278216;22;20022;-63
2022/10/03 03:33:16;;;;;;;18.60;9.63;;;;;;;14.72;92.36;102119.19;6278835;22;20016;-62
2022/10/03 03:36:09;;;;;;;15.15;10.30;;;;;;;14.84;92.34;102129.78;6224726;22;20024;-61
2022/10/03 03:38:52;;;;;;;18.45;9.63;;;;;;;14.80;91.55;102120.44;6251587;22;20355;-61
2022/10/03 03:41:57;;;;;;;15.82;9.52;;;;;;;14.60;90.97;102121.66;6276807;22;20020;-62
2022/10/03 03:45:02;;;;;;;17.08;9.80;;;;;;;14.56;90.82;102126.16;6281925;22;20011;-62
2022/10/03 03:47:48;;;;;;;15.45;9.27;;;;;;;14.75;91.57;102115.00;6280374;22;20016;-61
2022/10/03 03:50:42;;;;;;;18.27;10.30;;;;;;;14.53;89.90;102121.22;6228117;22;20020;-61
2022/10/03 03:53:20;;;;;;;16.45;10.15;;;;;;;14.48;90.89;102124.09;6254725;22;20440;-60
2022/10/03 03:56:25;;;;;;;16.98;10.05;;;;;;;14.61;92.39;102126.88;6280783;22;20347;-61
2022/10/03 03:59:00;;;;;;;14.90;9.77;;;;;;;14.69;92.94;102128.13;6254312;22;20030;-61
2022/10/03 04:01:30;;;;;;;19.73;9.85;;;;;;;14.70;92.65;102123.44;6228164;22;20493;-61
2022/10/03 04:04:03;;;;;;;17.75;9.85;;;;;;;14.73;92.05;102120.84;6254747;22;20456;-62
2022/10/03 04:06:45;;;;;;;16.00;10.10;;;;;;;14.81;90.61;102122.06;6281144;22;20423;-61
2022/10/03 04:09:45;;;;;;;17.67;10.27;;;;;;;14.73;87.50;102131.13;6254282;22;20486;-61
2022/10/03 04:12:36;;;;;;;17.92;10.68;;;;;;;14.46;87.12;102126.34;6280876;22;20336;-61
2022/10/03 04:15:12;;;;;;;20.55;12.15;;;;;;;14.49;87.85;102126.56;6254868;22;20016;-61
2022/10/03 04:20:56;;;;;;;22.83;12.35;;;;;;;14.05;92.08;102125.41;6252871;22;20024;-62
2022/10/03 04:23:37;;;;;;;25.98;12.57;;;;;;;14.05;92.58;102123.44;6239488;22;20020;-62
2022/10/03 04:26:30;;;;;;;21.70;13.55;;;;;;;14.01;93.32;102121.56;6253111;22;20019;-62
2022/10/03 04:29:23;;;;;;;24.00;14.27;;;;;;;14.04;93.34;102126.50;6259011;22;20023;-66
2022/10/03 04:31:57;;;;;;;21.75;13.80;;;;;;;13.95;93.80;102125.53;6254402;22;20023;-62
2022/10/03 04:34:43;;;;;;;22.65;15.65;;;;;;;13.92;94.54;102128.91;6281724;22;20018;-62
2022/10/03 04:37:23;;;;;;;25.00;14.52;;;;;;;13.99;93.78;102130.19;6254389;22;20023;-61
2022/10/03 04:40:10;;;;;;;25.80;16.60;;;;;;;13.92;93.79;102126.16;6229241;22;20535;-61
2022/10/03 04:42:56;;;;;;;24.02;16.75;;;;;;;13.95;94.43;102131.06;6229150;22;20016;-61
2022/10/03 04:45:39;;;;;;;26.52;16.40;;;;;;;13.96;94.96;102125.25;6229335;22;20022;-61
2022/10/03 04:48:21;;;;;;;27.98;17.60;;;;;;;13.87;95.75;102132.59;6253559;22;20027;-61
2022/10/03 04:51:11;;;;;;;27.88;17.25;;;;;;;13.89;95.42;102135.06;6281060;22;20016;-61
2022/10/03 04:53:53;;;;;;;;;;;;;;;13.85;95.67;102136.78;6254131;22;20563;-61
2022/10/03 04:56:42;;;;;;;28.90;18.23;;;;;;;13.93;95.14;102133.34;6201238;22;19915;-61
2022/10/03 04:59:19;;;;;;;32.05;17.88;;;;;;;13.66;95.17;102138.75;6279675;22;20023;-61
2022/10/03 05:01:55;;;;;;;29.45;17.70;;;;;;;13.51;95.90;102143.38;6252497;22;20031;-61
2022/10/03 05:04:29;;;;;;;30.15;17.35;;;;;;;13.53;96.66;102141.13;6253018;22;20015;-63
2022/10/03 05:07:40;;;;;;;32.88;17.88;;;;;;;13.49;96.23;102145.63;6251332;22;20015;-62
2022/10/03 05:10:32;;;;;;;35.22;18.13;;;;;;;13.68;95.63;102151.19;6278657;22;20026;-62
2022/10/03 05:13:12;;;;;;;29.42;16.98;;;;;;;13.50;96.38;102149.22;6227409;22;20015;-62
2022/10/03 05:16:03;;;;;;;32.22;16.70;;;;;;;13.40;96.41;102149.38;6252317;22;20012;-62
2022/10/03 05:19:18;;;;;;;30.90;17.45;;;;;;;13.54;97.27;102145.56;6252044;22;20018;-62
2022/10/03 05:21:58;;;;;;;40.53;20.00;;;;;;;13.64;95.93;102143.75;6186481;22;20027;-62
2022/10/03 05:24:36;;;;;;;35.97;20.70;;;;;;;13.78;97.92;102147.41;6279639;22;20467;-62
2022/10/03 05:27:50;;;;;;;42.08;19.95;;;;;;;13.68;96.02;102148.41;6251328;22;20482;-62
2022/10/03 05:30:34;;;;;;;34.70;18.30;;;;;;;13.55;95.34;102147.19;6273887;22;20351;-62
2022/10/03 05:33:43;;;;;;;31.63;18.38;;;;;;;13.30;96.29;102153.06;6254112;22;20020;-61
2022/10/03 05:36:16;;;;;;;32.27;17.20;;;;;;;13.68;95.96;102145.63;6231676;22;20023;-62
2022/10/03 05:39:18;;;;;;;29.45;17.67;;;;;;;13.54;94.58;102144.75;6252567;22;20023;-62
2022/10/03 05:41:56;;;;;;;33.53;19.23;;;;;;;13.49;94.62;102158.66;6250438;22;20015;-61
2022/10/03 05:45:02;;;;;;;31.77;19.48;;;;;;;13.36;96.20;102162.97;6230093;22;20019;-61
2022/10/03 05:47:44;;;;;;;36.60;20.50;;;;;;;13.23;96.80;102163.69;6252234;22;20015;-61
2022/10/03 05:50:43;;;;;;;40.10;21.63;;;;;;;13.31;96.83;102157.50;6253268;22;20025;-61
2022/10/03 05:53:23;;;;;;;40.88;22.40;;;;;;;13.23;96.36;102158.16;6217162;22;20026;-62
2022/10/03 05:56:21;;;;;;;38.20;22.20;;;;;;;13.27;96.62;102156.44;6278690;22;20018;-62
2022/10/03 05:58:55;;;;;;;39.20;23.20;;;;;;;13.48;97.69;102157.81;6252627;22;20020;-64
2022/10/03 06:01:28;;;;;;;35.60;20.98;;;;;;;13.35;97.68;102155.78;6277607;22;20020;-62
2022/10/03 06:04:21;;;;;;;33.35;18.98;;;;;;;13.17;98.25;102147.44;6278137;22;20019;-62
2022/10/03 06:07:08;;;;;;;32.97;17.85;;;;;;;13.41;99.54;102148.22;6226692;22;20019;-63
2022/10/03 06:09:41;;;;;;;41.45;23.52;;;;;;;14.08;100.00;102139.47;6250674;22;20023;-62
2022/10/03 06:12:15;;;;;;;44.53;22.77;;;;;;;14.29;100.00;102132.50;6251197;22;20012;-62
2022/10/03 06:15:02;;;;;;;40.08;21.23;;;;;;;14.33;100.00;102136.28;6276054;22;20016;-62
2022/10/03 06:17:48;;;;;;;33.20;18.75;;;;;;;14.36;100.00;102137.63;6224563;22;20023;-62
2022/10/03 06:20:45;;;;;;;32.08;18.95;;;;;;;14.23;100.00;102147.50;6249018;22;20026;-61
2022/10/03 06:23:54;;;;;;;28.92;16.75;;;;;;;14.18;100.00;102157.84;6276674;22;20027;-62
2022/10/03 06:26:49;;;;;;;25.25;15.40;;;;;;;13.84;100.00;102158.16;6177339;22;20016;-62
2022/10/03 06:29:56;;;;;;;29.95;16.67;;;;;;;13.90;100.00;102168.00;6275823;22;20027;-62
2022/10/03 06:32:38;;;;;;;24.13;15.82;;;;;;;13.45;92.13;102175.03;6267410;22;20523;-62
2022/10/03 06:35:20;;;;;;;24.80;16.08;;;;;;;13.16;93.01;102162.41;6249334;22;20023;-63
2022/10/03 06:38:00;;;;;;;21.67;14.70;;;;;;;12.93;93.38;102164.03;6276808;22;20020;-62
2022/10/03 06:40:49;;;;;;;19.73;13.50;;;;;;;13.08;90.95;102161.13;6276103;22;20015;-63
2022/10/03 06:43:40;;;;;;;19.10;12.57;;;;;;;12.86;89.60;102177.38;6273202;22;20019;-62
2022/10/03 06:46:11;;;;;;;15.60;11.65;;;;;;;12.75;89.97;102181.38;6273253;22;20012;-63
2022/10/03 06:49:03;;;;;;;18.38;13.02;;;;;;;12.52;92.63;102179.38;6276724;22;20038;-62
2022/10/03 06:52:01;;;;;;;21.25;13.05;;;;;;;13.15;99.32;102178.19;6275683;22;20020;-65
2022/10/03 06:55:03;;;;;;;20.63;14.80;;;;;;;13.33;97.46;102179.34;6275728;22;20015;-65
2022/10/03 06:57:57;;;;;;;20.10;13.10;;;;;;;13.70;95.69;102178.56;6276946;22;20340;-61
2022/10/03 07:00:31;;;;;;;22.83;14.68;;;;;;;14.01;94.33;102179.75;6274341;22;20030;-60
2022/10/03 07:03:26;;;;;;;19.15;13.15;;;;;;;14.22;92.10;102183.84;6248278;22;20030;-60
2022/10/03 07:06:05;;;;;;;22.30;13.57;;;;;;;14.28;90.88;102189.03;6248938;22;20016;-60
2022/10/03 07:08:47;;;;;;;20.40;14.27;;;;;;;14.41;89.57;102181.91;6250240;22;20039;-60
2022/10/03 07:11:25;;;;;;;20.92;15.73;;;;;;;14.50;89.40;102189.22;6222673;22;20038;-62
2022/10/03 07:14:18;;;;;;;28.30;20.00;;;;;;;14.53;88.44;102185.84;6249259;22;20015;-62
2022/10/03 07:17:07;;;;;;;21.02;15.80;;;;;;;14.58;88.24;102199.59;6247622;22;20028;-62
2022/10/03 07:19:41;;;;;;;20.88;13.48;;;;;;;14.73;87.83;102195.75;6276654;22;20764;-61
2022/10/03 07:22:38;;;;;;;18.00;11.80;;;;;;;14.79;86.91;102196.44;6247017;22;20024;-62
2022/10/03 07:25:24;;;;;;;16.90;12.00;;;;;;;14.85;86.51;102187.75;6221808;22;20022;-60
2022/10/03 07:28:00;;;;;;;15.93;11.50;;;;;;;14.92;85.81;102198.44;6225142;22;20019;-61
2022/10/03 07:30:48;;;;;;;13.50;8.98;;;;;;;14.67;83.29;102196.94;6273792;22;20026;-63
2022/10/03 07:33:43;;;;;;;13.13;8.90;;;;;;;14.65;85.98;102190.88;6249438;22;20031;-62
2022/10/03 07:39:18;;;;;;;14.55;8.52;;;;;;;14.43;86.11;102207.38;6274740;22;20046;-62
2022/10/03 07:41:46;;;;;;;12.82;8.20;;;;;;;14.65;86.67;102213.06;6274130;22;20020;-61
2022/10/03 07:44:58;;;;;;;16.08;8.98;;;;;;;14.50;84.83;102211.41;6270128;22;20012;-61
2022/10/03 07:47:54;;;;;;;15.68;8.88;;;;;;;14.71;87.29;102206.31;6240551;22;20020;-62
2022/10/03 07:50:40;;;;;;;14.88;8.82;;;;;;;14.18;85.84;102205.81;6246908;22;20023;-63
2022/10/03 07:53:36;;;;;;;13.88;8.38;;;;;;;14.24;87.48;102206.53;6276748;22;20016;-61
2022/10/03 07:56:54;;;;;;;16.75;9.10;;;;;;;13.96;86.20;102213.91;6246737;22;20313;-61
2022/10/03 08:00:04;;;;;;;15.02;8.50;;;;;;;14.00;87.80;102209.41;6151763;23;20029;-63
2022/10/03 08:03:21;;;;;;;14.63;9.77;;;;;;;14.04;91.34;102218.75;6275634;22;20022;-62
2022/10/03 08:05:58;;;;;;;14.15;9.15;;;;;;;14.17;90.27;102220.78;6274920;22;20455;-62
2022/10/03 08:08:49;;;;;;;16.08;10.18;;;;;;;14.23;88.81;102222.34;6246725;22;20023;-61
2022/10/03 08:11:28;;;;;;;15.35;10.15;;;;;;;14.38;89.59;102224.09;6247599;22;20008;-62
2022/10/03 08:14:18;;;;;;;17.40;10.60;;;;;;;14.56;88.70;102223.22;6273345;22;20027;-61
2022/10/03 08:17:10;;;;;;;15.60;9.77;;;;;;;14.58;88.27;102223.72;6247987;22;20017;-62
2022/10/03 08:19:46;;;;;;;18.38;11.07;;;;;;;13.98;85.90;102224.69;6275052;22;20017;-61
2022/10/03 08:22:25;;;;;;;19.63;11.05;;;;;;;13.84;85.72;102232.94;6276340;22;20024;-63
2022/10/03 08:25:22;;;;;;;18.00;12.20;;;;;;;13.83;88.79;102230.44;6221846;22;20019;-63
2022/10/03 08:28:05;;;;;;;20.40;14.05;;;;;;;13.92;89.40;102223.94;6249405;22;20055;-61
2022/10/03 08:30:52;;;;;;;22.52;15.77;;;;;;;13.67;86.74;102221.50;6276803;22;20027;-63
2022/10/03 08:33:32;;;;;;;22.05;15.27;;;;;;;14.09;91.19;102215.91;6252810;22;20020;-63
2022/10/03 08:36:36;;;;;;;26.17;15.60;;;;;;;14.48;90.95;102212.81;6248866;22;20016;-62
2022/10/03 08:39:27;;;;;;;16.85;13.50;;;;;;;14.76;89.58;102209.00;6249502;22;20011;-62
2022/10/03 08:42:23;;;;;;;17.75;13.05;;;;;;;14.83;88.55;102219.69;6257521;22;20020;-61
2022/10/03 08:45:01;;;;;;;17.30;11.15;;;;;;;14.66;87.56;102214.75;6118837;22;20022;-63
2022/10/03 08:48:17;;;;;;;14.07;10.23;;;;;;;14.83;87.57;102212.19;6277860;22;20031;-63
2022/10/03 08:50:57;;;;;;;14.18;9.18;;;;;;;15.04;87.71;102213.47;6137415;22;20019;-64
2022/10/03 08:54:00;;;;;;;16.00;9.32;;;;;;;14.98;87.43;102211.06;6250273;22;20025;-61
2022/10/03 08:56:33;;;;;;;15.35;9.38;;;;;;;15.03;85.84;102209.03;6222468;22;20123;-62
2022/10/03 08:59:12;;;;;;;13.90;9.68;;;;;;;14.94;83.26;102215.59;6224205;22;20015;-62
2022/10/03 09:01:57;;;;;;;16.70;10.55;;;;;;;15.00;85.03;102214.38;6275118;22;20026;-63
2022/10/03 09:04:34;;;;;;;16.52;11.18;;;;;;;14.63;84.55;102210.59;6276186;22;20012;-62
2022/10/03 09:07:11;;;;;;;19.45;11.77;;;;;;;14.43;85.21;102216.53;6276726;22;20508;-62
2022/10/03 09:10:09;;;;;;;19.20;12.23;;;;;;;14.19;83.58;102214.94;6220999;22;20023;-61
2022/10/03 09:13:00;;;;;;;18.40;12.32;;;;;;;14.06;83.99;102224.00;6278332;22;20020;-61
2022/10/03 09:16:03;;;;;;;22.05;16.55;;;;;;;13.86;84.24;102238.16;6270919;22;20019;-62
2022/10/03 09:18:42;;;;;;;25.55;16.23;;;;;;;13.90;83.59;102244.72;6270828;22;20701;-61
2022/10/03 09:21:22;;;;;;;24.88;17.50;;;;;;;13.46;85.34;102250.56;6249082;22;20456;-62
2022/10/03 09:24:13;;;;;;;25.63;18.38;;;;;;;13.44;87.08;102244.53;6277766;22;20710;-62
2022/10/03 09:26:46;;;;;;;24.77;16.60;;;;;;;13.66;86.80;102250.34;6248914;22;20016;-62
2022/10/03 09:29:36;;;;;;;24.08;16.27;;;;;;;13.97;87.45;102256.25;6251577;22;20026;-64
2022/10/03 09:32:41;;;;;;;22.90;16.67;;;;;;;14.09;87.73;102259.41;6251223;22;20024;-61
2022/10/03 09:35:30;;;;;;;39.80;18.40;;;;;;;14.43;88.56;102258.09;6277695;22;20018;-62
2022/10/03 09:38:19;;;;;;;26.98;17.50;;;;;;;14.56;85.93;102265.63;6277147;22;20419;-60
2022/10/03 09:41:11;;;;;;;26.08;18.45;;;;;;;14.66;84.69;102259.91;6275703;22;20039;-60
2022/10/03 09:44:17;;;;;;;29.90;21.10;;;;;;;14.31;83.32;102260.50;6276341;22;20045;-62
2022/10/03 09:47:22;;;;;;;30.88;22.35;;;;;;;14.19;81.98;102264.81;6197361;22;20031;-63
2022/10/03 09:49:58;;;;;;;30.75;22.30;;;;;;;14.09;82.55;102260.25;6276877;22;20027;-64
2022/10/03 09:52:49;;;;;;;29.48;20.50;;;;;;;14.12;83.23;102262.41;6249049;22;20027;-61
2022/10/03 09:55:39;;;;;;;27.00;19.08;;;;;;;14.09;83.03;102256.66;6273078;22;20490;-62
2022/10/03 09:58:44;;;;;;;29.77;18.90;;;;;;;13.92;83.38;102254.41;6224335;22;20034;-62
2022/10/03 10:01:51;;;;;;;26.60;18.98;;;;;;;13.89;84.28;102252.25;6257782;22;20459;-61
2022/10/03 10:05:00;;;;;;;26.50;18.25;;;;;;;14.05;83.89;102241.75;6249923;22;20020;-62
2022/10/03 10:07:36;;;;;;;24.42;18.33;;;;;;;14.25;83.35;102236.72;6276422;22;20007;-61
2022/10/03 10:10:38;;;;;;;28.83;18.88;;;;;;;14.28;83.08;102235.31;6277464;22;20023;-62
2022/10/03 10:13:13;;;;;;;29.17;19.63;;;;;;;14.44;85.10;102222.88;6278576;22;20012;-62
2022/10/03 10:16:00;;;;;;;31.05;20.52;;;;;;;14.44;83.45;102222.88;6248902;22;20339;-62
2022/10/03 10:18:43;;;;;;;24.98;20.42;;;;;;;14.27;82.97;102230.91;6247622;22;20023;-61
2022/10/03 10:21:33;;;;;;;30.52;21.40;;;;;;;14.59;82.80;102234.50;6276798;22;20016;-61
2022/10/03 10:24:19;;;;;;;;;;;;;;;14.69;82.33;102233.53;6225236;22;20020;-62
2022/10/03 10:27:05;;;;;;;27.95;21.25;;;;;;;14.63;80.08;102231.97;6248225;22;19915;-62
2022/10/03 10:29:48;;;;;;;31.15;21.13;;;;;;;14.53;81.20;102232.13;6247208;22;20023;-62
2022/10/03 10:32:24;;;;;;;31.63;21.13;;;;;;;14.65;81.37;102227.78;6275479;22;20026;-62
2022/10/03 10:35:19;;;;;;;33.53;22.40;;;;;;;14.90;81.11;102239.53;6247942;22;20035;-61
2022/10/03 10:38:42;;;;;;;34.72;21.73;;;;;;;14.93;80.80;102241.69;6276795;22;20485;-61
2022/10/03 10:41:51;;;;;;;27.30;20.17;;;;;;;15.01;79.82;102232.69;6129743;23;20029;-62
2022/10/03 10:44:37;;;;;;;23.88;18.48;;;;;;;15.11;79.68;102224.16;6257101;22;20019;-62
2022/10/03 10:47:38;;;;;;;29.55;17.33;;;;;;;14.89;79.80;102226.81;6249415;22;20012;-61
2022/10/03 10:50:23;;;;;;;30.52;19.00;;;;;;;14.61;80.17;102223.13;6249163;22;20015;-62
2022/10/03 10:53:28;;;;;;;24.33;17.98;;;;;;;14.59;81.91;102217.88;6248903;22;20019;-62
2022/10/03 10:56:13;;;;;;;29.50;19.38;;;;;;;14.65;81.18;102205.59;6275276;22;20020;-62
2022/10/03 10:59:02;;;;;;;29.17;18.75;;;;;;;14.77;81.90;102221.72;6223534;22;20022;-63
2022/10/03 11:01:44;;;;;;;22.33;17.55;;;;;;;14.86;80.51;102224.63;6277354;22;20336;-62
2022/10/03 11:04:31;;;;;;;21.98;16.70;;;;;;;15.14;82.91;102226.31;6222793;22;20024;-61
2022/10/03 11:07:35;;;;;;;26.02;15.52;;;;;;;15.36;84.58;102226.44;6276770;22;20020;-61
2022/10/03 11:10:29;;;;;;;26.63;18.63;;;;;;;15.31;79.91;102216.22;6275500;22;20446;-61
2022/10/03 11:13:03;;;;;;;25.58;17.83;;;;;;;15.32;77.92;102220.69;6277932;22;20027;-61
2022/10/03 11:15:36;;;;;;;30.13;17.65;;;;;;;15.34;78.02;102225.91;6277069;22;20024;-63
2022/10/03 11:18:38;;;;;;;25.60;16.67;;;;;;;15.58;76.17;102230.16;6277654;22;20016;-62
2022/10/03 11:21:24;;;;;;;25.33;14.68;;;;;;;15.57;75.77;102222.09;6275719;22;20031;-61
2022/10/03 11:24:11;;;;;;;19.55;14.05;;;;;;;15.29;75.80;102224.03;6276138;22;20442;-62
2022/10/03 11:27:11;;;;;;;21.17;15.10;;;;;;;15.26;77.24;102221.91;6249658;22;20012;-62
2022/10/03 11:30:15;;;;;;;22.03;16.67;;;;;;;15.32;77.73;102222.63;6263967;22;20371;-62
2022/10/03 11:33:20;;;;;;;22.48;16.33;;;;;;;15.30;77.50;102213.78;6250802;22;20242;-63
2022/10/03 11:35:51;;;;;;;23.70;15.98;;;;;;;15.12;77.21;102217.47;6278004;22;20016;-62
2022/10/03 11:38:30;;;;;;;22.73;15.45;;;;;;;14.91;78.70;102211.47;6259971;22;20018;-63
2022/10/03 11:41:15;;;;;;;25.73;17.13;;;;;;;14.87;79.56;102202.13;6277207;22;20019;-62
2022/10/03 11:44:08;;;;;;;24.45;17.45;;;;;;;15.07;80.60;102206.47;6277403;22;20028;-63
2022/10/03 11:46:46;;;;;;;28.17;18.63;;;;;;;15.11;79.09;102208.31;6249391;22;20440;-63
2022/10/03 11:49:19;;;;;;;22.08;16.58;;;;;;;15.31;81.28;102207.06;6249943;22;20020;-62
2022/10/03 11:51:55;;;;;;;22.50;16.67;;;;;;;15.25;78.60;102198.06;6277884;22;20038;-61
2022/10/03 11:54:27;;;;;;;27.50;20.77;;;;;;;15.13;77.92;102203.25;6224690;22;20015;-61
2022/10/03 11:57:15;;;;;;;29.30;18.52;;;;;;;15.60;81.80;102199.28;6227741;22;20012;-62
2022/10/03 11:59:51;;;;;;;20.58;15.07;;;;;;;15.49;79.11;102207.00;6251049;22;20030;-62
2022/10/03 12:02:34;;;;;;;17.58;11.90;;;;;;;15.62;78.37;102208.13;6277523;22;20114;-61
2022/10/03 12:05:11;;;;;;;20.38;12.75;;;;;;;15.50;76.54;102197.53;6279144;22;20683;-62
2022/10/03 12:10:56;;;;;;;17.90;11.55;;;;;;;15.59;77.40;102198.44;6187529;22;20031;-62
2022/10/03 12:13:57;;;;;;;20.38;11.57;;;;;;;15.71;75.89;102204.28;6222460;22;20015;-62
2022/10/03 12:16:30;;;;;;;19.35;11.73;;;;;;;15.82;74.13;102201.28;6248629;22;20027;-60
2022/10/03 12:19:09;;;;;;;18.05;10.70;;;;;;;16.01;76.71;102193.59;6251885;22;20015;-60
2022/10/03 12:21:58;;;;;;;15.27;10.55;;;;;;;15.85;75.15;102193.13;6251045;22;20039;-62
2022/10/03 12:24:42;;;;;;;18.67;12.07;;;;;;;15.84;76.29;102187.91;6224961;22;20019;-62
2022/10/03 12:27:30;;;;;;;17.15;12.32;;;;;;;15.87;73.68;102181.72;6259768;22;20447;-62
2022/10/03 12:30:03;;;;;;;17.15;11.90;;;;;;;15.70;73.43;102182.38;6251355;22;20023;-62
2022/10/03 12:32:41;;;;;;;18.75;12.55;;;;;;;15.78;75.01;102178.84;6247575;22;20455;-62
2022/10/03 12:35:08;;;;;;;20.77;12.05;;;;;;;15.81;73.94;102177.41;6276671;22;20321;-62
2022/10/03 12:37:42;;;;;;;18.80;11.27;;;;;;;16.13;76.44;102174.41;6275632;22;20024;-62
2022/10/03 12:40:15;;;;;;;18.45;10.57;;;;;;;15.92;72.83;102167.72;6277752;22;20064;-63
2022/10/03 12:43:23;;;;;;;20.52;11.00;;;;;;;16.15;74.02;102166.56;6277104;22;20019;-62
2022/10/03 12:46:00;;;;;;;19.05;10.63;;;;;;;16.60;77.46;102157.09;6246632;22;20024;-62
2022/10/03 12:48:48;;;;;;;18.17;11.10;;;;;;;16.50;75.21;102149.03;6249906;22;20016;-61
2022/10/03 12:51:45;;;;;;;16.05;10.95;;;;;;;16.42;74.80;102153.34;6277910;22;20088;-62
2022/10/03 12:54:42;;;;;;;21.75;9.73;;;;;;;16.25;73.53;102149.66;6251953;22;20182;-62
2022/10/03 12:57:37;;;;;;;17.83;10.30;;;;;;;16.09;72.39;102149.19;6142492;22;20014;-65